createdAt,value
2023-02-13T00:01:05.733Z,31.15
2023-02-13T00:03:08.491Z,29.88
2023-02-13T00:05:11.662Z,31.77
2023-02-13T00:07:14.652Z,32.50
2023-02-13T00:09:18.656Z,27.92
2023-02-13T00:11:21.597Z,33.08
2023-02-13T00:13:24.236Z,31.50
2023-02-13T00:15:27.008Z,31.05
2023-02-13T00:17:29.712Z,32.55
2023-02-13T00:19:32.466Z,30.05
2023-02-13T00:21:35.299Z,28.77
2023-02-13T00:23:39.185Z,33.53
2023-02-13T00:25:43.158Z,30.60
2023-02-13T00:27:45.802Z,34.35
2023-02-13T00:29:48.456Z,32.05
2023-02-13T00:31:51.175Z,32.13
2023-02-13T00:33:53.924Z,31.08
2023-02-13T00:36:04.028Z,36.83
2023-02-13T00:38:06.717Z,37.60
2023-02-13T00:40:10.477Z,31.77
2023-02-13T00:42:14.474Z,32.20
2023-02-13T00:44:17.146Z,32.20
2023-02-13T00:46:19.996Z,37.58
2023-02-13T00:48:22.711Z,31.85
2023-02-13T00:50:25.293Z,33.05
2023-02-13T00:52:27.893Z,33.95
2023-02-13T00:54:30.558Z,34.10
2023-02-13T00:56:33.245Z,31.33
2023-02-13T00:58:37.666Z,29.55
2023-02-13T01:00:40.671Z,32.45
2023-02-13T01:02:43.307Z,34.50
2023-02-13T01:04:45.960Z,35.30
2023-02-13T01:06:49.637Z,26.60
2023-02-13T01:08:52.363Z,31.15
2023-02-13T01:10:56.316Z,31.33
2023-02-13T01:12:59.094Z,30.45
2023-02-13T01:15:03.250Z,27.60
2023-02-13T01:17:05.866Z,26.65
2023-02-13T01:19:08.592Z,32.45
2023-02-13T01:21:17.522Z,31.85
2023-02-13T01:23:20.129Z,31.17
2023-02-13T01:25:23.031Z,29.10
2023-02-13T01:27:25.708Z,28.88
2023-02-13T01:29:28.345Z,30.27
2023-02-13T01:31:32.621Z,28.55
2023-02-13T01:33:36.055Z,30.50
2023-02-13T01:35:40.174Z,31.50
2023-02-13T01:37:43.367Z,32.55
2023-02-13T01:39:46.107Z,31.45
2023-02-13T01:41:48.742Z,35.05
2023-02-13T01:43:54.086Z,34.42
2023-02-13T01:45:58.718Z,33.55
2023-02-13T01:48:06.953Z,33.22
2023-02-13T01:50:12.693Z,37.20
2023-02-13T01:52:17.549Z,33.88
2023-02-13T01:54:23.577Z,28.33
2023-02-13T01:56:30.674Z,37.58
2023-02-13T01:58:36.840Z,33.55
2023-02-13T02:00:40.869Z,42.97
2023-02-13T02:02:46.368Z,34.15
2023-02-13T02:04:51.630Z,33.95
2023-02-13T02:06:58.363Z,33.95
2023-02-13T02:09:06.318Z,33.20
2023-02-13T02:11:17.946Z,34.22
2023-02-13T02:13:22.671Z,32.38
2023-02-13T02:15:25.987Z,36.78
2023-02-13T02:17:29.039Z,31.48
2023-02-13T02:19:39.453Z,36.25
2023-02-13T02:22:07.073Z,34.28
2023-02-13T02:24:39.597Z,31.92
2023-02-13T02:27:15.381Z,33.10
2023-02-13T02:29:49.530Z,33.65
2023-02-13T02:32:09.644Z,31.80
2023-02-13T02:34:19.429Z,30.10
2023-02-13T02:36:37.123Z,33.20
2023-02-13T02:38:56.093Z,35.13
2023-02-13T02:41:07.955Z,30.90
2023-02-13T02:43:25.013Z,34.22
2023-02-13T02:45:37.143Z,31.35
2023-02-13T02:48:08.456Z,33.28
2023-02-13T02:50:22.457Z,35.10
2023-02-13T02:52:32.624Z,34.72
2023-02-13T02:54:58.698Z,34.75
2023-02-13T02:57:08.523Z,36.00
2023-02-13T02:59:34.480Z,32.13
2023-02-13T03:01:56.356Z,32.15
2023-02-13T03:04:19.034Z,31.60
2023-02-13T03:06:27.144Z,32.10
2023-02-13T03:08:44.915Z,32.95
2023-02-13T03:11:05.333Z,32.38
2023-02-13T03:13:21.996Z,31.13
2023-02-13T03:15:28.062Z,36.58
2023-02-13T03:17:48.662Z,37.00
2023-02-13T03:20:19.971Z,36.03
2023-02-13T03:22:32.638Z,39.47
2023-02-13T03:24:46.411Z,33.17
2023-02-13T03:26:52.820Z,36.97
2023-02-13T03:29:18.267Z,34.30
2023-02-13T03:31:31.154Z,36.53
2023-02-13T03:36:08.581Z,34.47
2023-02-13T03:38:16.664Z,34.20
2023-02-13T03:40:26.088Z,40.20
2023-02-13T03:42:34.927Z,39.50
2023-02-13T03:44:44.220Z,35.45
2023-02-13T03:46:49.601Z,42.22
2023-02-13T03:49:10.740Z,38.80
2023-02-13T03:51:23.026Z,37.40
2023-02-13T03:53:28.083Z,41.65
2023-02-13T03:55:52.825Z,35.58
2023-02-13T04:00:19.546Z,32.60
2023-02-13T04:02:26.460Z,38.75
2023-02-13T04:06:39.524Z,33.95
2023-02-13T04:08:42.620Z,44.20
2023-02-13T04:10:52.877Z,40.67
2023-02-13T04:13:04.518Z,42.65
2023-02-13T04:15:13.593Z,45.67
2023-02-13T04:17:22.809Z,40.75
2023-02-13T04:19:26.945Z,40.08
2023-02-13T04:21:33.777Z,44.03
2023-02-13T04:23:37.929Z,35.22
2023-02-13T04:25:44.891Z,39.83
2023-02-13T04:29:50.063Z,34.97
2023-02-13T04:31:53.107Z,37.97
2023-02-13T04:33:55.810Z,36.15
2023-02-13T04:35:58.418Z,40.00
2023-02-13T04:38:01.031Z,33.83
2023-02-13T04:40:05.803Z,40.30
2023-02-13T04:42:08.573Z,43.65
2023-02-13T04:44:11.345Z,36.55
2023-02-13T04:46:14.064Z,40.97
2023-02-13T04:48:16.816Z,38.97
2023-02-13T04:50:19.944Z,40.35
2023-02-13T04:52:22.618Z,41.00
2023-02-13T04:54:25.273Z,42.15
2023-02-13T04:56:29.241Z,39.55
2023-02-13T04:58:32.155Z,35.42
2023-02-13T05:00:34.800Z,38.60
2023-02-13T05:02:39.341Z,44.45
2023-02-13T05:04:42.425Z,40.85
2023-02-13T05:06:45.189Z,45.22
2023-02-13T05:08:47.823Z,43.38
2023-02-13T05:10:50.397Z,40.13
2023-02-13T05:12:54.907Z,44.83
2023-02-13T05:14:57.523Z,44.75
2023-02-13T05:17:00.188Z,43.88
2023-02-13T05:19:03.090Z,37.40
2023-02-13T05:21:23.766Z,38.95
2023-02-13T05:23:26.454Z,42.45
2023-02-13T05:25:29.393Z,40.50
2023-02-13T05:27:32.083Z,40.63
2023-02-13T05:29:35.281Z,46.83
2023-02-13T05:31:37.965Z,40.83
2023-02-13T05:33:40.747Z,44.05
2023-02-13T05:35:43.334Z,42.97
2023-02-13T05:37:46.114Z,42.63
2023-02-13T05:39:48.739Z,46.17
2023-02-13T05:41:51.654Z,46.60
2023-02-13T05:43:54.346Z,42.42
2023-02-13T05:46:09.568Z,49.28
2023-02-13T05:48:12.329Z,48.80
2023-02-13T05:50:15.000Z,38.47
2023-02-13T05:52:17.711Z,48.88
2023-02-13T05:54:20.703Z,40.75
2023-02-13T05:56:23.462Z,35.25
2023-02-13T05:58:26.069Z,43.08
2023-02-13T06:00:28.776Z,38.63
2023-02-13T06:02:32.839Z,38.30
2023-02-13T06:04:35.459Z,41.10
2023-02-13T06:06:38.137Z,38.25
2023-02-13T06:08:40.758Z,37.58
2023-02-13T06:10:45.180Z,32.65
2023-02-13T06:12:47.813Z,34.00
2023-02-13T06:14:50.410Z,34.55
2023-02-13T06:16:53.117Z,38.25
2023-02-13T06:18:57.160Z,40.35
2023-02-13T06:21:00.438Z,38.35
2023-02-13T06:23:03.114Z,38.15
2023-02-13T06:25:06.707Z,30.35
2023-02-13T06:27:09.307Z,29.75
2023-02-13T06:29:12.860Z,30.70
2023-02-13T06:31:15.542Z,30.88
2023-02-13T06:33:18.238Z,35.10
2023-02-13T06:35:22.512Z,30.27
2023-02-13T06:37:25.279Z,37.58
2023-02-13T06:39:27.910Z,34.00
2023-02-13T06:41:30.617Z,36.03
2023-02-13T06:43:33.585Z,32.90
2023-02-13T06:45:36.208Z,32.17
2023-02-13T06:47:42.732Z,29.35
2023-02-13T06:49:45.351Z,33.20
2023-02-13T06:51:49.389Z,33.83
2023-02-13T06:53:52.002Z,34.03
2023-02-13T06:55:55.400Z,33.17
2023-02-13T06:57:58.059Z,32.00
2023-02-13T07:00:00.962Z,32.78
2023-02-13T07:02:03.680Z,34.67
2023-02-13T07:04:06.371Z,33.65
2023-02-13T07:06:09.390Z,34.15
2023-02-13T07:08:13.940Z,35.05
2023-02-13T07:10:16.660Z,32.85
2023-02-13T07:12:19.384Z,36.28
2023-02-13T07:14:22.233Z,37.30
2023-02-13T07:16:25.281Z,42.92
2023-02-13T07:18:28.136Z,42.22
2023-02-13T07:20:30.964Z,44.08
2023-02-13T07:22:34.100Z,39.80
2023-02-13T07:24:38.615Z,42.22
2023-02-13T07:26:41.266Z,46.58
2023-02-13T07:28:44.104Z,41.53
2023-02-13T07:30:46.816Z,44.17
2023-02-13T07:32:49.498Z,40.33
2023-02-13T07:35:01.302Z,38.40
2023-02-13T07:37:04.836Z,41.95
2023-02-13T07:39:07.691Z,41.08
2023-02-13T07:41:11.683Z,41.75
2023-02-13T07:43:14.532Z,44.65
2023-02-13T07:45:17.402Z,37.85
2023-02-13T07:47:20.399Z,41.33
2023-02-13T07:49:23.495Z,38.78
2023-02-13T07:51:26.252Z,32.00
2023-02-13T07:53:28.989Z,42.53
2023-02-13T07:55:32.634Z,36.50
2023-02-13T07:57:36.690Z,32.67
2023-02-13T07:59:39.296Z,27.27
2023-02-13T08:01:41.966Z,29.27
2023-02-13T08:03:44.732Z,24.90
2023-02-13T08:05:49.943Z,24.52
2023-02-13T08:07:53.601Z,24.02
2023-02-13T08:10:13.712Z,24.38
2023-02-13T08:12:16.418Z,18.83
2023-02-13T08:14:20.664Z,20.77
2023-02-13T08:16:23.416Z,23.10
2023-02-13T08:18:26.085Z,23.55
2023-02-13T08:20:28.848Z,25.13
2023-02-13T08:22:31.548Z,22.15
2023-02-13T08:24:34.727Z,19.58
2023-02-13T08:26:37.574Z,19.77
2023-02-13T08:28:40.264Z,19.38
2023-02-13T08:30:44.381Z,20.75
2023-02-13T08:32:54.205Z,19.92
2023-02-13T08:34:57.304Z,21.35
2023-02-13T08:36:59.953Z,20.02
2023-02-13T08:39:02.529Z,17.58
2023-02-13T08:41:06.285Z,17.23
2023-02-13T08:43:09.160Z,18.13
2023-02-13T08:45:12.323Z,18.30
2023-02-13T08:47:16.367Z,17.02
2023-02-13T08:49:19.300Z,18.80
2023-02-13T08:51:22.040Z,19.45
2023-02-13T08:53:25.184Z,17.92
2023-02-13T08:55:29.014Z,15.30
2023-02-13T08:57:32.211Z,17.98
2023-02-13T08:59:34.928Z,18.80
2023-02-13T09:01:37.660Z,17.88
2023-02-13T09:03:41.784Z,16.77
2023-02-13T09:05:44.613Z,16.00
2023-02-13T09:07:47.390Z,15.77
2023-02-13T09:09:50.114Z,16.38
2023-02-13T09:11:53.941Z,13.95
2023-02-13T09:13:56.770Z,16.30
2023-02-13T09:16:01.427Z,15.18
2023-02-13T09:18:04.167Z,15.15
2023-02-13T09:20:09.259Z,15.48
2023-02-13T09:22:12.087Z,14.90
2023-02-13T09:24:14.858Z,13.38
2023-02-13T09:26:19.750Z,12.80
2023-02-13T09:28:23.397Z,14.45
2023-02-13T09:30:26.252Z,15.63
2023-02-13T09:32:29.420Z,12.13
2023-02-13T09:34:32.101Z,13.45
2023-02-13T09:36:37.265Z,12.80
2023-02-13T09:38:39.950Z,12.43
2023-02-13T09:40:46.451Z,13.60
2023-02-13T09:42:51.027Z,12.50
2023-02-13T09:44:56.747Z,13.68
2023-02-13T09:46:59.549Z,12.80
2023-02-13T09:49:08.797Z,12.05
2023-02-13T09:51:16.006Z,11.27
2023-02-13T09:53:23.478Z,10.88
2023-02-13T09:55:30.784Z,12.95
2023-02-13T09:57:37.477Z,10.18
2023-02-13T09:59:51.083Z,11.60
2023-02-13T10:01:59.029Z,12.50
2023-02-13T10:04:26.332Z,11.02
2023-02-13T10:06:32.975Z,11.07
2023-02-13T10:08:55.942Z,10.52
2023-02-13T10:11:08.275Z,11.65
2023-02-13T10:13:26.329Z,11.60
2023-02-13T10:15:38.432Z,11.43
2023-02-13T10:17:45.643Z,11.98
2023-02-13T10:19:51.674Z,14.35
2023-02-13T10:21:57.718Z,12.10
2023-02-13T10:24:07.907Z,10.65
2023-02-13T10:26:19.943Z,13.18
2023-02-13T10:28:31.601Z,11.73
2023-02-13T10:30:40.884Z,13.50
2023-02-13T10:32:49.449Z,11.98
2023-02-13T10:34:56.124Z,12.20
2023-02-13T10:39:15.689Z,12.07
2023-02-13T10:41:26.295Z,10.88
2023-02-13T10:43:34.020Z,12.05
2023-02-13T10:45:58.300Z,12.95
2023-02-13T10:50:25.732Z,10.93
2023-02-13T10:52:40.513Z,13.40
2023-02-13T10:55:02.474Z,13.82
2023-02-13T10:57:13.434Z,10.32
2023-02-13T10:59:33.229Z,11.23
2023-02-13T11:01:42.861Z,11.00
2023-02-13T11:03:47.968Z,11.27
2023-02-13T11:05:52.163Z,10.88
2023-02-13T11:07:54.806Z,12.65
2023-02-13T11:10:04.380Z,13.02
2023-02-13T11:12:26.116Z,13.77
2023-02-13T11:14:28.842Z,12.15
2023-02-13T11:16:40.357Z,12.32
2023-02-13T11:18:50.520Z,10.90
2023-02-13T11:21:02.381Z,10.60
2023-02-13T11:23:35.356Z,12.93
2023-02-13T11:25:39.564Z,10.38
2023-02-13T11:27:42.327Z,12.35
2023-02-13T11:29:55.321Z,11.30
2023-02-13T11:32:12.752Z,11.45
2023-02-13T11:34:27.480Z,11.75
2023-02-13T11:36:31.826Z,12.20
2023-02-13T11:38:34.556Z,10.55
2023-02-13T11:40:39.519Z,12.77
2023-02-13T11:42:43.913Z,12.30
2023-02-13T11:44:52.628Z,12.20
2023-02-13T11:46:57.551Z,12.85
2023-02-13T11:49:02.832Z,8.88
2023-02-13T11:51:06.086Z,10.63
2023-02-13T11:53:19.094Z,13.70
2023-02-13T11:55:31.841Z,12.95
2023-02-13T11:59:44.872Z,12.18
2023-02-13T12:01:50.353Z,12.55
2023-02-13T12:04:08.327Z,12.60
2023-02-13T12:06:15.619Z,12.52
2023-02-13T12:08:18.465Z,12.98
2023-02-13T12:10:24.058Z,15.90
2023-02-13T12:12:33.899Z,17.63
2023-02-13T12:14:40.885Z,13.15
2023-02-13T12:16:47.352Z,15.98
2023-02-13T12:18:53.827Z,15.05
2023-02-13T12:21:05.268Z,14.55
2023-02-13T12:23:19.648Z,15.63
2023-02-13T12:25:35.287Z,14.43
2023-02-13T12:27:52.076Z,13.70
2023-02-13T12:30:10.425Z,12.13
2023-02-13T12:32:19.848Z,16.40
2023-02-13T12:34:55.553Z,13.00
2023-02-13T12:37:11.459Z,16.60
2023-02-13T12:39:25.932Z,14.50
2023-02-13T12:41:40.224Z,15.45
2023-02-13T12:44:05.718Z,15.20
2023-02-13T12:46:16.308Z,15.65
2023-02-13T12:48:30.765Z,11.40
2023-02-13T12:50:44.933Z,15.23
2023-02-13T12:52:58.976Z,13.80
2023-02-13T12:55:23.428Z,13.57
2023-02-13T12:59:49.903Z,13.00
2023-02-13T13:02:14.733Z,14.65
2023-02-13T13:04:26.110Z,14.63
2023-02-13T13:06:47.824Z,12.88
2023-02-13T13:09:20.591Z,13.98
2023-02-13T13:11:34.896Z,12.70
2023-02-13T13:13:50.753Z,13.38
2023-02-13T13:16:02.874Z,11.05
2023-02-13T13:18:24.640Z,13.60
2023-02-13T13:20:53.125Z,13.27
2023-02-13T13:23:01.359Z,15.23
2023-02-13T13:25:15.238Z,14.95
2023-02-13T13:27:23.098Z,13.38
2023-02-13T13:29:30.596Z,14.07
2023-02-13T13:31:36.875Z,13.52
2023-02-13T13:33:45.035Z,13.15
2023-02-13T13:35:56.822Z,13.48
2023-02-13T13:38:10.144Z,13.82
2023-02-13T13:40:30.549Z,14.95
2023-02-13T13:42:42.041Z,13.55
2023-02-13T13:44:54.640Z,14.65
2023-02-13T13:47:02.127Z,14.80
2023-02-13T13:49:25.557Z,12.27
2023-02-13T13:51:28.478Z,14.18
2023-02-13T13:53:31.134Z,12.68
2023-02-13T13:56:09.545Z,14.55
2023-02-13T13:58:22.552Z,13.95
2023-02-13T14:00:28.110Z,14.15
2023-02-13T14:02:46.511Z,15.55
2023-02-13T14:07:23.773Z,14.50
2023-02-13T14:09:44.729Z,12.70
2023-02-13T14:11:47.500Z,14.13
2023-02-13T14:13:50.366Z,13.45
2023-02-13T14:15:55.104Z,14.00
2023-02-13T14:17:58.778Z,13.88
2023-02-13T14:20:06.578Z,12.85
2023-02-13T14:22:34.487Z,15.20
2023-02-13T14:24:37.190Z,14.52
2023-02-13T14:26:41.588Z,15.15
2023-02-13T14:28:56.645Z,13.15
2023-02-13T14:31:07.871Z,16.05
2023-02-13T14:33:25.310Z,13.80
2023-02-13T14:35:32.466Z,15.80
2023-02-13T14:37:39.932Z,11.60
2023-02-13T14:39:42.725Z,13.98
2023-02-13T14:41:57.921Z,11.18
2023-02-13T14:44:00.877Z,11.63
2023-02-13T14:46:09.866Z,14.38
2023-02-13T14:48:15.184Z,14.30
2023-02-13T14:50:22.929Z,13.82
2023-02-13T14:52:30.915Z,13.40
2023-02-13T14:54:35.730Z,13.45
2023-02-13T14:56:39.885Z,13.40
2023-02-13T14:58:50.294Z,14.95
2023-02-13T15:00:57.011Z,13.60
2023-02-13T15:03:06.199Z,15.95
2023-02-13T15:05:15.439Z,16.48
2023-02-13T15:07:23.672Z,15.27
2023-02-13T15:09:34.057Z,14.30
2023-02-13T15:11:38.920Z,16.30
2023-02-13T15:13:41.594Z,13.55
2023-02-13T15:15:44.375Z,14.85
2023-02-13T15:17:47.834Z,15.45
2023-02-13T15:19:53.783Z,13.18
2023-02-13T15:22:00.126Z,12.77
2023-02-13T15:24:03.614Z,11.80
2023-02-13T15:26:08.699Z,11.73
2023-02-13T15:28:20.747Z,12.68
2023-02-13T15:30:25.921Z,13.80
2023-02-13T15:32:32.142Z,14.85
2023-02-13T15:34:35.254Z,12.30
2023-02-13T15:36:42.610Z,12.60
2023-02-13T15:38:45.286Z,13.13
2023-02-13T15:40:51.837Z,13.60
2023-02-13T15:42:56.656Z,12.98
2023-02-13T15:44:59.588Z,14.48
2023-02-13T15:47:07.292Z,14.48
2023-02-13T15:49:15.190Z,13.98
2023-02-13T15:51:20.639Z,14.10
2023-02-13T15:53:23.501Z,12.68
2023-02-13T15:55:29.047Z,12.88
2023-02-13T15:57:32.705Z,14.02
2023-02-13T15:59:39.346Z,13.27
2023-02-13T16:01:44.484Z,12.18
2023-02-13T16:03:50.368Z,12.63
2023-02-13T16:05:53.265Z,14.23
2023-02-13T16:07:58.290Z,13.23
2023-02-13T16:10:15.838Z,13.50
2023-02-13T16:12:23.126Z,16.02
2023-02-13T16:14:28.120Z,15.15
2023-02-13T16:16:36.385Z,15.77
2023-02-13T16:18:41.344Z,14.00
2023-02-13T16:20:44.062Z,18.30
2023-02-13T16:22:48.892Z,14.05
2023-02-13T16:24:54.041Z,12.70
2023-02-13T16:26:57.365Z,14.45
2023-02-13T16:29:00.115Z,14.68
2023-02-13T16:31:04.433Z,14.60
2023-02-13T16:33:22.617Z,15.77
2023-02-13T16:35:29.658Z,16.23
2023-02-13T16:37:34.525Z,13.82
2023-02-13T16:39:37.150Z,19.58
2023-02-13T16:41:39.785Z,15.15
2023-02-13T16:43:47.498Z,16.25
2023-02-13T16:45:50.208Z,17.42
2023-02-13T16:48:02.465Z,14.27
2023-02-13T16:50:15.579Z,14.05
2023-02-13T16:52:21.022Z,18.52
2023-02-13T16:54:35.399Z,15.20
2023-02-13T16:56:40.217Z,14.38
2023-02-13T16:58:42.932Z,14.60
2023-02-13T17:00:51.211Z,13.75
2023-02-13T17:02:53.897Z,14.65
2023-02-13T17:05:00.052Z,16.13
2023-02-13T17:07:03.990Z,17.33
2023-02-13T17:09:06.656Z,15.30
2023-02-13T17:11:09.509Z,18.38
2023-02-13T17:13:17.754Z,16.52
2023-02-13T17:15:22.649Z,18.50
2023-02-13T17:17:25.633Z,20.05
2023-02-13T17:19:29.370Z,15.65
2023-02-13T17:21:32.773Z,19.95
2023-02-13T17:23:36.874Z,19.40
2023-02-13T17:25:39.518Z,21.00
2023-02-13T17:27:42.991Z,20.42
2023-02-13T17:29:45.674Z,19.92
2023-02-13T17:31:49.378Z,19.13
2023-02-13T17:33:52.116Z,21.17
2023-02-13T17:35:55.140Z,17.35
2023-02-13T17:37:58.016Z,17.33
2023-02-13T17:40:02.069Z,21.52
2023-02-13T17:42:05.189Z,23.45
2023-02-13T17:44:07.885Z,17.33
2023-02-13T17:46:10.549Z,19.15
2023-02-13T17:48:13.614Z,18.65
2023-02-13T17:50:17.534Z,19.77
2023-02-13T17:52:22.737Z,22.17
2023-02-13T17:54:25.418Z,19.02
2023-02-13T17:56:29.447Z,16.95
2023-02-13T17:58:32.156Z,20.67
2023-02-13T18:00:35.427Z,20.77
2023-02-13T18:02:38.057Z,22.30
2023-02-13T18:04:41.095Z,24.20
2023-02-13T18:06:44.040Z,23.20
2023-02-13T18:08:46.655Z,20.48
2023-02-13T18:10:49.483Z,22.20
2023-02-13T18:12:54.437Z,22.23
2023-02-13T18:14:57.144Z,21.02
2023-02-13T18:17:00.238Z,23.35
2023-02-13T18:19:03.133Z,23.85
2023-02-13T18:21:06.130Z,24.50
2023-02-13T18:23:08.816Z,25.95
2023-02-13T18:25:11.916Z,20.35
2023-02-13T18:27:14.593Z,20.52
2023-02-13T18:29:18.638Z,22.77
2023-02-13T18:31:21.287Z,21.95
2023-02-13T18:33:24.085Z,20.92
2023-02-13T18:35:27.054Z,24.15
2023-02-13T18:37:30.410Z,24.13
2023-02-13T18:39:33.193Z,23.55
2023-02-13T18:41:35.848Z,28.60
2023-02-13T18:43:38.479Z,43.20
2023-02-13T18:45:42.557Z,37.97
2023-02-13T18:47:45.249Z,30.23
2023-02-13T18:49:47.892Z,33.55
2023-02-13T18:51:50.665Z,24.05
2023-02-13T18:53:53.325Z,24.05
2023-02-13T18:56:03.038Z,24.58
2023-02-13T18:58:06.201Z,23.13
2023-02-13T19:00:10.104Z,20.67
2023-02-13T19:02:14.203Z,22.77
2023-02-13T19:04:16.892Z,22.05
2023-02-13T19:06:21.975Z,24.15
2023-02-13T19:08:24.653Z,25.20
2023-02-13T19:10:27.316Z,23.73
2023-02-13T19:12:29.908Z,19.13
2023-02-13T19:14:32.628Z,24.20
2023-02-13T19:16:36.276Z,22.58
2023-02-13T19:18:41.321Z,24.13
2023-02-13T19:20:43.910Z,22.92
2023-02-13T19:22:46.649Z,24.05
2023-02-13T19:24:49.290Z,23.02
2023-02-13T19:26:51.928Z,21.42
2023-02-13T19:28:55.118Z,23.98
2023-02-13T19:31:03.495Z,26.15
2023-02-13T19:33:06.228Z,21.80
2023-02-13T19:35:10.347Z,26.02
2023-02-13T19:37:13.029Z,27.92
2023-02-13T19:39:15.705Z,26.67
2023-02-13T19:41:19.185Z,25.98
2023-02-13T19:43:21.838Z,23.67
2023-02-13T19:45:24.546Z,26.95
2023-02-13T19:47:27.222Z,26.48
2023-02-13T19:49:29.896Z,27.65
2023-02-13T19:51:35.271Z,26.23
2023-02-13T19:53:37.945Z,29.83
2023-02-13T19:55:40.628Z,31.58
2023-02-13T19:57:43.311Z,30.08
2023-02-13T19:59:45.995Z,26.88
2023-02-13T20:01:48.786Z,28.98
2023-02-13T20:03:52.291Z,31.50
2023-02-13T20:05:54.933Z,31.17
2023-02-13T20:07:58.996Z,29.38
2023-02-13T20:10:01.714Z,33.67
2023-02-13T20:12:04.753Z,33.17
2023-02-13T20:14:11.429Z,28.10
2023-02-13T20:16:17.316Z,31.33
2023-02-13T20:18:20.790Z,28.05
2023-02-13T20:20:23.494Z,34.03
2023-02-13T20:22:26.241Z,35.72
2023-02-13T20:24:30.415Z,37.95
2023-02-13T20:26:33.182Z,39.78
2023-02-13T20:28:35.923Z,41.55
2023-02-13T20:30:41.074Z,38.03
2023-02-13T20:32:44.215Z,32.05
2023-02-13T20:34:59.016Z,31.35
2023-02-13T20:37:02.537Z,33.08
2023-02-13T20:39:07.782Z,29.92
2023-02-13T20:41:12.998Z,28.25
2023-02-13T20:43:15.663Z,31.92
2023-02-13T20:45:18.660Z,30.92
2023-02-13T20:47:21.340Z,30.83
2023-02-13T20:49:24.183Z,28.48
2023-02-13T20:51:27.266Z,33.47
2023-02-13T20:53:31.218Z,34.13
2023-02-13T20:55:33.801Z,33.45
2023-02-13T20:57:37.934Z,33.65
2023-02-13T20:59:40.541Z,34.92
2023-02-13T21:01:45.577Z,33.85
2023-02-13T21:03:53.509Z,35.53
2023-02-13T21:05:56.196Z,36.67
2023-02-13T21:07:58.788Z,36.70
2023-02-13T21:10:01.474Z,35.20
2023-02-13T21:12:04.251Z,39.20
2023-02-13T21:14:08.459Z,38.75
2023-02-13T21:16:13.500Z,33.17
2023-02-13T21:18:16.334Z,36.17
2023-02-13T21:20:19.315Z,34.83
2023-02-13T21:22:21.944Z,37.15
2023-02-13T21:24:24.705Z,35.95
2023-02-13T21:26:27.969Z,34.08
2023-02-13T21:28:30.901Z,35.85
2023-02-13T21:30:35.182Z,39.60
2023-02-13T21:32:39.353Z,36.17
2023-02-13T21:34:43.412Z,35.28
2023-02-13T21:36:46.620Z,35.90
2023-02-13T21:38:49.281Z,31.27
2023-02-13T21:40:51.898Z,30.33
2023-02-13T21:42:54.566Z,41.60
2023-02-13T21:44:57.322Z,31.65
2023-02-13T21:47:01.520Z,36.75
2023-02-13T21:49:06.989Z,31.27
2023-02-13T21:51:12.030Z,35.72
2023-02-13T21:53:14.842Z,30.58
2023-02-13T21:55:17.889Z,37.60
2023-02-13T21:57:20.467Z,29.27
2023-02-13T21:59:23.215Z,26.65
2023-02-13T22:01:27.831Z,37.38
2023-02-13T22:03:31.954Z,32.55
2023-02-13T22:05:34.668Z,35.40
2023-02-13T22:07:57.808Z,31.92
2023-02-13T22:10:00.450Z,35.45
2023-02-13T22:12:04.169Z,33.20
2023-02-13T22:14:09.131Z,40.65
2023-02-13T22:16:14.944Z,32.40
2023-02-13T22:18:17.573Z,31.20
2023-02-13T22:20:22.280Z,30.10
2023-02-13T22:22:25.064Z,36.30
2023-02-13T22:24:28.254Z,32.13
2023-02-13T22:26:32.809Z,36.28
2023-02-13T22:28:35.563Z,33.45
2023-02-13T22:30:38.430Z,38.13
2023-02-13T22:32:41.114Z,27.15
2023-02-13T22:34:43.875Z,35.47
2023-02-13T22:36:47.851Z,39.67
2023-02-13T22:38:51.445Z,35.53
2023-02-13T22:40:54.087Z,37.10
2023-02-13T22:42:56.744Z,31.88
2023-02-13T22:44:59.399Z,34.60
2023-02-13T22:47:02.041Z,40.45
2023-02-13T22:49:05.102Z,34.58
2023-02-13T22:51:09.662Z,37.72
2023-02-13T22:53:13.576Z,34.20
2023-02-13T22:55:16.360Z,37.72
2023-02-13T22:57:19.000Z,35.72
2023-02-13T22:59:21.680Z,33.63
2023-02-13T23:01:26.427Z,38.10
2023-02-13T23:03:32.087Z,44.63
2023-02-13T23:05:34.722Z,41.40
2023-02-13T23:07:37.439Z,37.60
2023-02-13T23:09:41.469Z,41.80
2023-02-13T23:12:01.472Z,36.72
2023-02-13T23:14:05.232Z,38.42
2023-02-13T23:16:13.024Z,38.58
2023-02-13T23:18:14.795Z,36.00
2023-02-13T23:20:18.276Z,32.60
2023-02-13T23:22:20.997Z,40.75
2023-02-13T23:24:24.013Z,41.15
2023-02-13T23:26:28.026Z,42.30
2023-02-13T23:28:30.689Z,38.55
2023-02-13T23:30:33.860Z,50.53
2023-02-13T23:32:36.536Z,36.70
2023-02-13T23:34:39.180Z,37.90
2023-02-13T23:36:41.864Z,37.55
2023-02-13T23:38:46.451Z,36.88
2023-02-13T23:40:49.237Z,40.38
2023-02-13T23:42:53.273Z,36.47
2023-02-13T23:44:55.899Z,43.55
2023-02-13T23:46:58.626Z,42.50
2023-02-13T23:49:01.442Z,33.90
2023-02-13T23:51:04.306Z,43.40
2023-02-13T23:53:07.179Z,48.22
2023-02-13T23:55:09.858Z,42.83
2023-02-13T23:57:13.058Z,37.22
2023-02-13T23:59:17.976Z,41.92
